Unicom:                    122.8

AWOS:                  118.275

Elevation           1458’ MSL

TPA:                   2500’ MSL

06/24:         5003’ L   75’ W

PAPI:       06/Left     24/Left

(Operate lights on unicom freq.)

Traffic Pattern: Left

Beacon: Sunset to Sunrise

Windsock: yes, lighted

Segmented Circle: No

 

Cleveland Center: 126.72/291.65

FSS: Altoona

[Source: ADDS]
METAR
KFKL 291956Z AUTO 03009KT 10SM OVC021 M01/M06 A3010 RMK AO2 SLP213 T10111056 FZRANO =
KFKL 291921Z 2919/3018 32003KT P6SM BKN018 FM300000 04003KT P6SM SCT020 FM301400 09003KT P6SM OVC050
TAF
KFKL 291921Z 2919/3018 32003KT P6SM BKN018 FM300000 04003KT P6SM SCT020 FM301400 09003KT P6SM OVC050 =
[Source: ADDS]
METAR
KDUJ 291953Z AUTO 36003KT 10SM CLR 00/M08 A3006 RMK AO2 SLP197 T00001078 =
KDUJ 291732Z 2918/3018 32004KT P6SM BKN025 FM291900 35006KT P6SM OVC040 FM300000 03003KT P6SM BKN250 FM301500 08005KT P6SM OVC100
TAF
KDUJ 291732Z 2918/3018 32004KT P6SM BKN025 FM291900 35006KT P6SM OVC040 FM300000 03003KT P6SM BKN250 FM301500 08005KT P6SM OVC100 =

Nearby Overnight Accommodations.

Park Inn by Radisson

45 Holiday Inn Rd

Clarion, PA 16214

Phone # (814) 226-8850

Park Inn by Radisson

45 Holiday Inn Rd Clarion, PA 16214 Phone # (814) 226-8850

Microtel

121 North Point Drive

Clarion, PA 16214

Phone # (814) 227-2223

Microtel

121 North Point Drive Clarion, PA 16214 Phone # (814) 227-2223

Hampton Inn and Suites

4 Hospital Drive

Clarion, PA 16214

Phone # (814) 226-4444

Hampton Inn & Suites

4 Hospital Drive Clarion, PA 16214 Phone # (814) 226-4444

Comfort Inn

129 Dolby Street

Clarion, PA 16214

Phone # (814) 226-5230

Comfort Inn

129 Dolby Street Clarion, PA 16214 Phone # (814) 226-5230

Quality Inn

24 United Drive

Clarion, PA 16214 

Phone # (814) 226-8682 


Quality Inn

24 United Drive Clarion, PA 16214 Phone # (814) 226-8682

Holiday Inn Express

325 Perkins Road

Clarion, PA 16214

Phone (814) 223-4010


Holiday Inn Express

325 Perkins Road Clarion, PA 16214 Phone (814) 223-4010

Super 8 Motel

135 Hotel Road

Clarion, PA 16214

Phone # (800) 536-9326

Super 8 Motel

135 Hotel Road Clarion, PA 16214 Phone # (800) 536-9326


Transportation.

Enterprise

545 South Fifth Avenue

Clarion, PA 16214

Phone # (814) 227-1284

Enterprise

545 South Fifth Avenue Clarion, PA 16214 Phone # (814) 227-1284

Clarion County Taxi, Inc.

East End Road

Clarion County Taxi, Inc.

Shippenville, PA 16254

Phone # (814) 226-8635

 *cash, check, debit


Choice Cab Co.

Clarion, PA 16214

Phone # (814) 221- 4992

 *cash only